sensor_id;sensor_type;location;lat;lon;timestamp;pressure;altitude;pressure_sealevel;temperature;humidity
20971;BME280;10644;48.834;10.088;2023-04-29T00:01:17;96303.19;;;17.19;71.05
20971;BME280;10644;48.834;10.088;2023-04-29T00:03:43;96311.50;;;17.22;70.66
20971;BME280;10644;48.834;10.088;2023-04-29T00:06:08;96309.47;;;17.26;70.50
20971;BME280;10644;48.834;10.088;2023-04-29T00:08:35;96321.03;;;17.22;70.34
20971;BME280;10644;48.834;10.088;2023-04-29T00:11:00;96300.84;;;17.16;69.88
20971;BME280;10644;48.834;10.088;2023-04-29T00:13:26;96300.44;;;17.20;70.01
20971;BME280;10644;48.834;10.088;2023-04-29T00:15:51;96303.59;;;17.24;70.09
20971;BME280;10644;48.834;10.088;2023-04-29T00:18:16;96303.97;;;17.10;69.68
20971;BME280;10644;48.834;10.088;2023-04-29T00:20:42;96308.03;;;17.03;70.17
20971;BME280;10644;48.834;10.088;2023-04-29T00:23:08;96303.41;;;17.06;69.98
20971;BME280;10644;48.834;10.088;2023-04-29T00:25:33;96299.88;;;17.07;70.04
20971;BME280;10644;48.834;10.088;2023-04-29T00:27:59;96292.66;;;17.11;69.91
20971;BME280;10644;48.834;10.088;2023-04-29T00:30:27;96300.81;;;17.06;69.53
20971;BME280;10644;48.834;10.088;2023-04-29T00:32:53;96306.78;;;17.07;69.60
20971;BME280;10644;48.834;10.088;2023-04-29T00:35:21;96301.63;;;17.07;69.79
20971;BME280;10644;48.834;10.088;2023-04-29T00:37:46;96301.38;;;17.10;69.84
20971;BME280;10644;48.834;10.088;2023-04-29T00:40:12;96295.25;;;17.11;69.79
20971;BME280;10644;48.834;10.088;2023-04-29T00:42:41;96296.63;;;17.15;69.70
20971;BME280;10644;48.834;10.088;2023-04-29T00:45:08;96298.38;;;17.14;69.92
20971;BME280;10644;48.834;10.088;2023-04-29T00:47:33;96292.66;;;17.20;69.61
20971;BME280;10644;48.834;10.088;2023-04-29T00:49:59;96302.22;;;17.20;69.93
20971;BME280;10644;48.834;10.088;2023-04-29T00:52:25;96303.59;;;17.24;69.61
20971;BME280;10644;48.834;10.088;2023-04-29T00:54:53;96304.41;;;17.24;69.09
20971;BME280;10644;48.834;10.088;2023-04-29T00:57:18;96311.50;;;17.22;69.19
20971;BME280;10644;48.834;10.088;2023-04-29T00:59:44;96308.47;;;17.17;69.01
20971;BME280;10644;48.834;10.088;2023-04-29T01:02:10;96307.53;;;17.18;69.25
20971;BME280;10644;48.834;10.088;2023-04-29T01:04:36;96303.97;;;17.19;69.12
20971;BME280;10644;48.834;10.088;2023-04-29T01:12:37;96310.13;;;17.18;69.62
20971;BME280;10644;48.834;10.088;2023-04-29T01:15:28;96307.41;;;17.20;69.52
20971;BME280;10644;48.834;10.088;2023-04-29T01:20:40;96311.72;;;17.10;69.92
20971;BME280;10644;48.834;10.088;2023-04-29T01:23:06;96314.84;;;17.04;69.85
20971;BME280;10644;48.834;10.088;2023-04-29T01:25:31;96322.19;;;17.08;70.22
20971;BME280;10644;48.834;10.088;2023-04-29T01:28:07;96317.84;;;17.09;70.37
20971;BME280;10644;48.834;10.088;2023-04-29T01:30:46;96319.91;;;17.15;70.29
20971;BME280;10644;48.834;10.088;2023-04-29T01:33:32;96323.16;;;17.07;70.32
20971;BME280;10644;48.834;10.088;2023-04-29T01:38:48;96317.97;;;17.07;70.35
20971;BME280;10644;48.834;10.088;2023-04-29T01:41:22;96324.00;;;17.08;70.61
20971;BME280;10644;48.834;10.088;2023-04-29T01:43:51;96311.84;;;17.08;70.55
20971;BME280;10644;48.834;10.088;2023-04-29T01:46:17;96313.72;;;16.97;70.68
20971;BME280;10644;48.834;10.088;2023-04-29T01:48:43;96310.00;;;16.90;70.81
20971;BME280;10644;48.834;10.088;2023-04-29T01:51:09;96313.53;;;16.89;70.71
20971;BME280;10644;48.834;10.088;2023-04-29T01:53:35;96311.38;;;16.94;70.78
20971;BME280;10644;48.834;10.088;2023-04-29T01:56:00;96312.47;;;16.91;70.58
20971;BME280;10644;48.834;10.088;2023-04-29T01:58:26;96309.75;;;16.93;70.47
20971;BME280;10644;48.834;10.088;2023-04-29T02:00:52;96316.00;;;16.90;70.21
20971;BME280;10644;48.834;10.088;2023-04-29T02:03:18;96311.16;;;16.97;70.63
20971;BME280;10644;48.834;10.088;2023-04-29T02:05:43;96317.63;;;16.91;70.59
20971;BME280;10644;48.834;10.088;2023-04-29T02:08:09;96310.44;;;16.95;70.51
20971;BME280;10644;48.834;10.088;2023-04-29T02:10:34;96314.63;;;16.86;70.38
20971;BME280;10644;48.834;10.088;2023-04-29T02:13:00;96315.69;;;16.84;70.48
20971;BME280;10644;48.834;10.088;2023-04-29T02:15:26;96314.63;;;16.86;70.47
20971;BME280;10644;48.834;10.088;2023-04-29T02:17:52;96313.91;;;16.75;70.87
20971;BME280;10644;48.834;10.088;2023-04-29T02:20:18;96319.88;;;16.75;70.92
20971;BME280;10644;48.834;10.088;2023-04-29T02:22:43;96311.84;;;16.69;70.77
20971;BME280;10644;48.834;10.088;2023-04-29T02:25:09;96325.22;;;16.74;70.95
20971;BME280;10644;48.834;10.088;2023-04-29T02:27:37;96319.72;;;16.67;70.78
20971;BME280;10644;48.834;10.088;2023-04-29T02:30:03;96326.41;;;16.70;71.08
20971;BME280;10644;48.834;10.088;2023-04-29T02:32:29;96323.13;;;16.68;71.01
20971;BME280;10644;48.834;10.088;2023-04-29T02:34:57;96324.06;;;16.67;70.79
20971;BME280;10644;48.834;10.088;2023-04-29T02:37:22;96330.06;;;16.67;70.94
20971;BME280;10644;48.834;10.088;2023-04-29T02:39:48;96327.09;;;16.72;70.68
20971;BME280;10644;48.834;10.088;2023-04-29T02:42:13;96323.53;;;16.73;70.25
20971;BME280;10644;48.834;10.088;2023-04-29T02:44:38;96329.03;;;16.79;70.33
20971;BME280;10644;48.834;10.088;2023-04-29T02:47:05;96336.66;;;16.81;70.12
20971;BME280;10644;48.834;10.088;2023-04-29T02:49:30;96328.22;;;16.79;69.71
20971;BME280;10644;48.834;10.088;2023-04-29T02:51:56;96323.53;;;16.73;70.03
20971;BME280;10644;48.834;10.088;2023-04-29T02:54:22;96319.16;;;16.64;70.34
20971;BME280;10644;48.834;10.088;2023-04-29T02:56:48;96317.25;;;16.66;70.54
20971;BME280;10644;48.834;10.088;2023-04-29T02:59:13;96320.91;;;16.63;70.74
20971;BME280;10644;48.834;10.088;2023-04-29T03:01:38;96323.25;;;16.66;70.60
20971;BME280;10644;48.834;10.088;2023-04-29T03:04:04;96311.84;;;16.69;70.26
20971;BME280;10644;48.834;10.088;2023-04-29T03:06:30;96317.44;;;16.74;70.41
20971;BME280;10644;48.834;10.088;2023-04-29T03:08:58;96318.13;;;16.76;70.66
20971;BME280;10644;48.834;10.088;2023-04-29T03:11:25;96317.00;;;16.69;70.72
20971;BME280;10644;48.834;10.088;2023-04-29T03:13:51;96314.78;;;16.64;70.66
20971;BME280;10644;48.834;10.088;2023-04-29T03:16:17;96310.59;;;16.73;70.56
20971;BME280;10644;48.834;10.088;2023-04-29T03:18:43;96323.53;;;16.73;70.70
20971;BME280;10644;48.834;10.088;2023-04-29T03:21:08;96319.31;;;16.72;70.62
20971;BME280;10644;48.834;10.088;2023-04-29T03:23:34;96318.69;;;16.79;70.52
20971;BME280;10644;48.834;10.088;2023-04-29T03:26:03;96315.69;;;16.84;70.67
20971;BME280;10644;48.834;10.088;2023-04-29T03:28:30;96308.66;;;16.86;70.52
20971;BME280;10644;48.834;10.088;2023-04-29T03:30:56;96313.03;;;16.95;70.44
20971;BME280;10644;48.834;10.088;2023-04-29T03:33:22;96307.03;;;16.94;69.89
20971;BME280;10644;48.834;10.088;2023-04-29T03:35:50;96316.31;;;16.97;69.98
20971;BME280;10644;48.834;10.088;2023-04-29T03:38:16;96312.78;;;16.98;69.95
20971;BME280;10644;48.834;10.088;2023-04-29T03:40:41;96309.91;;;17.01;69.85
20971;BME280;10644;48.834;10.088;2023-04-29T03:43:07;96319.72;;;16.97;70.10
20971;BME280;10644;48.834;10.088;2023-04-29T03:45:33;96309.75;;;16.93;70.19
20971;BME280;10644;48.834;10.088;2023-04-29T03:47:59;96311.38;;;16.94;70.23
20971;BME280;10644;48.834;10.088;2023-04-29T03:50:24;96318.91;;;16.97;70.60
20971;BME280;10644;48.834;10.088;2023-04-29T03:52:50;96311.16;;;16.97;70.07
20971;BME280;10644;48.834;10.088;2023-04-29T03:55:15;96317.00;;;16.99;70.24
20971;BME280;10644;48.834;10.088;2023-04-29T03:57:41;96310.44;;;16.95;69.86
20971;BME280;10644;48.834;10.088;2023-04-29T04:00:07;96319.16;;;16.94;70.31
20971;BME280;10644;48.834;10.088;2023-04-29T04:02:33;96313.69;;;16.87;70.45
20971;BME280;10644;48.834;10.088;2023-04-29T04:04:59;96313.81;;;16.86;70.21
20971;BME280;10644;48.834;10.088;2023-04-29T04:07:26;96302.50;;;16.87;70.41
20971;BME280;10644;48.834;10.088;2023-04-29T04:09:54;96314.50;;;16.88;70.25
20971;BME280;10644;48.834;10.088;2023-04-29T04:12:19;96312.47;;;16.91;70.21
20971;BME280;10644;48.834;10.088;2023-04-29T04:14:45;96320.47;;;16.79;70.80
20971;BME280;10644;48.834;10.088;2023-04-29T04:17:10;96326.31;;;16.81;70.50
20971;BME280;10644;48.834;10.088;2023-04-29T04:19:36;96320.63;;;16.87;70.57
20971;BME280;10644;48.834;10.088;2023-04-29T04:22:02;96329.50;;;16.94;70.28
20971;BME280;10644;48.834;10.088;2023-04-29T04:24:28;96319.16;;;16.94;70.03
20971;BME280;10644;48.834;10.088;2023-04-29T04:26:53;96333.47;;;16.98;70.38
20971;BME280;10644;48.834;10.088;2023-04-29T04:29:18;96337.25;;;16.94;70.13
20971;BME280;10644;48.834;10.088;2023-04-29T04:31:43;96339.94;;;16.83;70.06
20971;BME280;10644;48.834;10.088;2023-04-29T04:34:09;96338.44;;;16.80;70.55
20971;BME280;10644;48.834;10.088;2023-04-29T04:36:34;96346.06;;;16.82;70.35
20971;BME280;10644;48.834;10.088;2023-04-29T04:38:59;96337.34;;;16.83;70.08
20971;BME280;10644;48.834;10.088;2023-04-29T04:41:25;96342.72;;;16.91;69.87
20971;BME280;10644;48.834;10.088;2023-04-29T04:43:50;96346.22;;;16.90;69.97
20971;BME280;10644;48.834;10.088;2023-04-29T04:46:16;96346.94;;;16.92;69.55
20971;BME280;10644;48.834;10.088;2023-04-29T04:48:41;96352.78;;;16.94;69.84
20971;BME280;10644;48.834;10.088;2023-04-29T04:51:11;96363.97;;;16.94;69.88
20971;BME280;10644;48.834;10.088;2023-04-29T04:53:37;96349.22;;;16.85;70.25
20971;BME280;10644;48.834;10.088;2023-04-29T04:56:03;96363.97;;;16.94;70.01
20971;BME280;10644;48.834;10.088;2023-04-29T04:58:29;96359.31;;;16.88;69.92
20971;BME280;10644;48.834;10.088;2023-04-29T05:00:56;96369.28;;;16.93;69.95
20971;BME280;10644;48.834;10.088;2023-04-29T05:03:21;96362.34;;;16.93;69.68
20971;BME280;10644;48.834;10.088;2023-04-29T05:05:55;96372.03;;;17.01;69.60
20971;BME280;10644;48.834;10.088;2023-04-29T05:08:21;96362.63;;;17.00;69.43
20971;BME280;10644;48.834;10.088;2023-04-29T05:10:47;96369.28;;;16.93;69.12
20971;BME280;10644;48.834;10.088;2023-04-29T05:13:13;96369.28;;;16.93;69.45
20971;BME280;10644;48.834;10.088;2023-04-29T05:15:38;96365.56;;;16.86;69.77
20971;BME280;10644;48.834;10.088;2023-04-29T05:18:04;96369.09;;;16.85;69.55
20971;BME280;10644;48.834;10.088;2023-04-29T05:20:32;96378.50;;;16.86;69.51
20971;BME280;10644;48.834;10.088;2023-04-29T05:22:57;96381.78;;;16.88;69.75
20971;BME280;10644;48.834;10.088;2023-04-29T05:25:24;96386.28;;;16.86;70.20
20971;BME280;10644;48.834;10.088;2023-04-29T05:27:50;96391.13;;;16.79;70.26
20971;BME280;10644;48.834;10.088;2023-04-29T05:30:16;96389.63;;;16.56;71.37
20971;BME280;10644;48.834;10.088;2023-04-29T05:32:42;96388.78;;;16.56;70.61
20971;BME280;10644;48.834;10.088;2023-04-29T05:35:09;96404.91;;;16.59;70.73
20971;BME280;10644;48.834;10.088;2023-04-29T05:37:34;96402.50;;;16.47;70.96
20971;BME280;10644;48.834;10.088;2023-04-29T05:40:00;96401.03;;;16.54;70.89
20971;BME280;10644;48.834;10.088;2023-04-29T05:42:25;96402.66;;;16.55;71.07
20971;BME280;10644;48.834;10.088;2023-04-29T05:44:51;96408.97;;;16.62;71.14
20971;BME280;10644;48.834;10.088;2023-04-29T05:47:16;96416.44;;;16.55;70.99
20971;BME280;10644;48.834;10.088;2023-04-29T05:49:41;96418.63;;;16.39;71.75
20971;BME280;10644;48.834;10.088;2023-04-29T05:52:07;96420.09;;;16.53;71.43
20971;BME280;10644;48.834;10.088;2023-04-29T05:54:33;96421.44;;;16.68;70.73
20971;BME280;10644;48.834;10.088;2023-04-29T05:56:59;96420.03;;;16.43;71.27
20971;BME280;10644;48.834;10.088;2023-04-29T05:59:28;96420.81;;;16.44;70.93
20971;BME280;10644;48.834;10.088;2023-04-29T06:01:53;96422.34;;;16.35;71.33
20971;BME280;10644;48.834;10.088;2023-04-29T06:04:19;96430.94;;;16.36;71.79
20971;BME280;10644;48.834;10.088;2023-04-29T06:06:47;96438.81;;;16.45;71.55
20971;BME280;10644;48.834;10.088;2023-04-29T06:09:14;96438.72;;;16.36;71.77
20971;BME280;10644;48.834;10.088;2023-04-29T06:11:40;96425.91;;;16.34;72.21
20971;BME280;10644;48.834;10.088;2023-04-29T06:14:05;96443.88;;;16.36;72.32
20971;BME280;10644;48.834;10.088;2023-04-29T06:16:32;96436.50;;;16.42;72.58
20971;BME280;10644;48.834;10.088;2023-04-29T06:18:57;96430.25;;;16.34;73.13
20971;BME280;10644;48.834;10.088;2023-04-29T06:21:23;96434.25;;;16.27;73.31
20971;BME280;10644;48.834;10.088;2023-04-29T06:23:48;96452.91;;;16.41;73.20
20971;BME280;10644;48.834;10.088;2023-04-29T06:26:14;96446.56;;;16.34;73.04
20971;BME280;10644;48.834;10.088;2023-04-29T06:28:40;96444.94;;;16.33;72.70
20971;BME280;10644;48.834;10.088;2023-04-29T06:31:05;96458.69;;;16.34;72.83
20971;BME280;10644;48.834;10.088;2023-04-29T06:33:30;96450.97;;;16.23;73.48
20971;BME280;10644;48.834;10.088;2023-04-29T06:35:58;96470.28;;;16.08;74.04
20971;BME280;10644;48.834;10.088;2023-04-29T06:38:23;96466.94;;;16.17;74.21
20971;BME280;10644;48.834;10.088;2023-04-29T06:40:48;96469.53;;;16.17;74.32
20971;BME280;10644;48.834;10.088;2023-04-29T06:43:14;96473.91;;;16.16;74.73
20971;BME280;10644;48.834;10.088;2023-04-29T06:45:39;96478.00;;;16.19;74.18
20971;BME280;10644;48.834;10.088;2023-04-29T06:48:05;96475.50;;;16.28;73.89
20971;BME280;10644;48.834;10.088;2023-04-29T06:50:30;96481.06;;;16.24;73.31
20971;BME280;10644;48.834;10.088;2023-04-29T06:52:56;96471.84;;;16.31;73.46
20971;BME280;10644;48.834;10.088;2023-04-29T06:55:21;96475.34;;;16.52;72.59
20971;BME280;10644;48.834;10.088;2023-04-29T06:57:46;96471.13;;;16.51;72.59
20971;BME280;10644;48.834;10.088;2023-04-29T07:00:12;96465.06;;;16.61;72.64
20971;BME280;10644;48.834;10.088;2023-04-29T07:02:37;96471.38;;;16.68;72.35
20971;BME280;10644;48.834;10.088;2023-04-29T07:05:04;96474.34;;;16.64;72.54
20971;BME280;10644;48.834;10.088;2023-04-29T07:07:30;96482.66;;;16.47;72.44
20971;BME280;10644;48.834;10.088;2023-04-29T07:09:55;96484.06;;;16.51;72.54
20971;BME280;10644;48.834;10.088;2023-04-29T07:12:21;96487.31;;;16.53;72.31
20971;BME280;10644;48.834;10.088;2023-04-29T07:14:46;96479.34;;;16.45;72.71
20971;BME280;10644;48.834;10.088;2023-04-29T07:17:14;96488.31;;;16.41;72.62
20971;BME280;10644;48.834;10.088;2023-04-29T07:19:39;96485.47;;;16.44;72.64
20971;BME280;10644;48.834;10.088;2023-04-29T07:22:07;96491.84;;;16.40;72.92
20971;BME280;10644;48.834;10.088;2023-04-29T07:24:32;96494.59;;;16.59;72.55
20971;BME280;10644;48.834;10.088;2023-04-29T07:26:57;96500.44;;;16.61;72.07
20971;BME280;10644;48.834;10.088;2023-04-29T07:29:23;96490.94;;;16.61;71.83
20971;BME280;10644;48.834;10.088;2023-04-29T07:31:48;96498.06;;;16.69;70.96
20971;BME280;10644;48.834;10.088;2023-04-29T07:34:16;96499.22;;;16.76;70.52
20971;BME280;10644;48.834;10.088;2023-04-29T07:36:41;96502.75;;;16.75;69.44
20971;BME280;10644;48.834;10.088;2023-04-29T07:39:07;96495.09;;;16.73;68.68
20971;BME280;10644;48.834;10.088;2023-04-29T07:41:32;96503.47;;;16.66;68.20
20971;BME280;10644;48.834;10.088;2023-04-29T07:43:57;96494.59;;;16.59;67.76
20971;BME280;10644;48.834;10.088;2023-04-29T07:46:23;96508.16;;;16.72;66.75
20971;BME280;10644;48.834;10.088;2023-04-29T07:48:48;96506.75;;;16.79;66.39
20971;BME280;10644;48.834;10.088;2023-04-29T07:51:16;96505.34;;;16.75;66.04
20971;BME280;10644;48.834;10.088;2023-04-29T07:53:41;96521.59;;;16.66;66.71
20971;BME280;10644;48.834;10.088;2023-04-29T07:56:08;96522.88;;;16.71;67.35
20971;BME280;10644;48.834;10.088;2023-04-29T07:58:33;96519.41;;;16.82;66.46
20971;BME280;10644;48.834;10.088;2023-04-29T08:01:08;96522.84;;;17.03;66.32
20971;BME280;10644;48.834;10.088;2023-04-29T08:03:34;96532.38;;;17.02;65.81
20971;BME280;10644;48.834;10.088;2023-04-29T08:06:01;96533.53;;;16.78;65.31
20971;BME280;10644;48.834;10.088;2023-04-29T08:08:28;96545.63;;;16.57;65.42
20971;BME280;10644;48.834;10.088;2023-04-29T08:10:53;96536.69;;;16.50;66.29
20971;BME280;10644;48.834;10.088;2023-04-29T08:13:18;96549.00;;;16.57;66.58
20971;BME280;10644;48.834;10.088;2023-04-29T08:15:44;96540.53;;;16.66;67.03
20971;BME280;10644;48.834;10.088;2023-04-29T08:18:09;96538.75;;;16.67;67.30
20971;BME280;10644;48.834;10.088;2023-04-29T08:20:35;96543.75;;;16.79;68.12
20971;BME280;10644;48.834;10.088;2023-04-29T08:23:02;96546.81;;;17.05;67.16
20971;BME280;10644;48.834;10.088;2023-04-29T08:25:28;96553.47;;;17.18;66.49
20971;BME280;10644;48.834;10.088;2023-04-29T08:27:54;96553.59;;;17.17;66.38
20971;BME280;10644;48.834;10.088;2023-04-29T08:30:20;96548.78;;;17.12;64.38
20971;BME280;10644;48.834;10.088;2023-04-29T08:32:49;96550.81;;;17.09;64.31
20971;BME280;10644;48.834;10.088;2023-04-29T08:35:14;96550.47;;;16.82;64.01
20971;BME280;10644;48.834;10.088;2023-04-29T08:37:40;96558.03;;;16.74;64.51
20971;BME280;10644;48.834;10.088;2023-04-29T08:40:07;96557.13;;;16.64;65.23
20971;BME280;10644;48.834;10.088;2023-04-29T08:42:35;96561.47;;;16.63;65.30
20971;BME280;10644;48.834;10.088;2023-04-29T08:45:02;96572.06;;;16.60;66.11
20971;BME280;10644;48.834;10.088;2023-04-29T08:47:35;96564.28;;;16.71;65.63
20971;BME280;10644;48.834;10.088;2023-04-29T08:50:03;96566.66;;;16.84;65.11
20971;BME280;10644;48.834;10.088;2023-04-29T08:52:30;96562.81;;;16.78;64.74
20971;BME280;10644;48.834;10.088;2023-04-29T08:54:57;96554.50;;;16.75;64.51
20971;BME280;10644;48.834;10.088;2023-04-29T08:57:24;96566.31;;;16.57;64.52
20971;BME280;10644;48.834;10.088;2023-04-29T08:59:50;96571.09;;;16.72;65.24
20971;BME280;10644;48.834;10.088;2023-04-29T09:02:16;96564.69;;;16.87;64.33
20971;BME280;10644;48.834;10.088;2023-04-29T09:04:46;96569.66;;;17.00;64.03
20971;BME280;10644;48.834;10.088;2023-04-29T09:07:12;96567.94;;;17.21;63.19
20971;BME280;10644;48.834;10.088;2023-04-29T09:09:39;96561.78;;;17.22;62.87
20971;BME280;10644;48.834;10.088;2023-04-29T09:12:07;96559.81;;;17.35;62.36
20971;BME280;10644;48.834;10.088;2023-04-29T09:14:33;96560.28;;;17.19;61.59
20971;BME280;10644;48.834;10.088;2023-04-29T09:17:00;96563.69;;;17.20;62.05
20971;BME280;10644;48.834;10.088;2023-04-29T09:19:33;96567.19;;;17.30;61.44
20971;BME280;10644;48.834;10.088;2023-04-29T09:22:02;96563.31;;;17.04;61.33
20971;BME280;10644;48.834;10.088;2023-04-29T09:24:29;96572.03;;;17.03;61.48
20971;BME280;10644;48.834;10.088;2023-04-29T09:26:56;96576.63;;;16.99;62.55
20971;BME280;10644;48.834;10.088;2023-04-29T09:29:21;96573.59;;;17.15;61.86
20971;BME280;10644;48.834;10.088;2023-04-29T09:31:48;96575.00;;;17.19;62.54
20971;BME280;10644;48.834;10.088;2023-04-29T09:34:14;96577.16;;;17.14;61.59
20971;BME280;10644;48.834;10.088;2023-04-29T09:46:53;96595.19;;;17.04;62.76
20971;BME280;10644;48.834;10.088;2023-04-29T09:49:24;96600.16;;;16.96;62.10
20971;BME280;10644;48.834;10.088;2023-04-29T09:51:53;96599.91;;;16.99;62.11
20971;BME280;10644;48.834;10.088;2023-04-29T09:54:20;96596.13;;;17.03;62.73
20971;BME280;10644;48.834;10.088;2023-04-29T09:56:48;96593.97;;;17.08;61.86
20971;BME280;10644;48.834;10.088;2023-04-29T09:59:13;96594.88;;;16.98;61.98
20971;BME280;10644;48.834;10.088;2023-04-29T10:01:39;96593.56;;;16.92;62.27
20971;BME280;10644;48.834;10.088;2023-04-29T10:04:05;96601.47;;;16.91;62.86
20971;BME280;10644;48.834;10.088;2023-04-29T10:06:32;96598.09;;;17.11;62.47
20971;BME280;10644;48.834;10.088;2023-04-29T10:08:58;96592.88;;;17.22;61.83
20971;BME280;10644;48.834;10.088;2023-04-29T10:11:24;96583.13;;;17.14;61.86
20971;BME280;10644;48.834;10.088;2023-04-29T10:13:51;96591.22;;;17.21;60.92
20971;BME280;10644;48.834;10.088;2023-04-29T10:16:29;96598.22;;;17.41;60.93
20971;BME280;10644;48.834;10.088;2023-04-29T10:18:59;96599.50;;;17.35;60.51
20971;BME280;10644;48.834;10.088;2023-04-29T10:21:29;96604.41;;;17.18;60.38
20971;BME280;10644;48.834;10.088;2023-04-29T10:23:58;96596.91;;;17.15;60.22
20971;BME280;10644;48.834;10.088;2023-04-29T10:26:27;96595.97;;;17.16;60.89
20971;BME280;10644;48.834;10.088;2023-04-29T10:28:58;96594.31;;;17.35;60.51
20971;BME280;10644;48.834;10.088;2023-04-29T10:31:27;96598.34;;;17.39;60.42
20971;BME280;10644;48.834;10.088;2023-04-29T10:33:56;96590.03;;;17.25;60.32
20971;BME280;10644;48.834;10.088;2023-04-29T10:36:24;96593.06;;;17.30;59.92
20971;BME280;10644;48.834;10.088;2023-04-29T10:38:53;96593.06;;;17.30;59.95
20971;BME280;10644;48.834;10.088;2023-04-29T10:41:33;96596.34;;;17.32;60.30
20971;BME280;10644;48.834;10.088;2023-04-29T10:44:01;96582.56;;;17.31;60.45
20971;BME280;10644;48.834;10.088;2023-04-29T10:46:28;96598.91;;;17.43;60.21
20971;BME280;10644;48.834;10.088;2023-04-29T10:49:01;96594.69;;;17.42;60.53
20971;BME280;10644;48.834;10.088;2023-04-29T10:51:31;96587.78;;;17.52;60.26
20971;BME280;10644;48.834;10.088;2023-04-29T10:56:47;96593.59;;;17.65;59.37
20971;BME280;10644;48.834;10.088;2023-04-29T10:59:17;96578.84;;;17.65;58.76
20971;BME280;10644;48.834;10.088;2023-04-29T11:04:09;96574.75;;;17.63;59.43
20971;BME280;10644;48.834;10.088;2023-04-29T11:12:08;96573.88;;;17.73;59.20
20971;BME280;10644;48.834;10.088;2023-04-29T11:14:48;96569.44;;;17.64;58.75
20971;BME280;10644;48.834;10.088;2023-04-29T11:17:17;96584.44;;;17.61;58.51
20971;BME280;10644;48.834;10.088;2023-04-29T11:19:51;96584.00;;;17.56;58.69
20971;BME280;10644;48.834;10.088;2023-04-29T11:27:17;96582.34;;;17.55;58.51
20971;BME280;10644;48.834;10.088;2023-04-29T11:29:45;96588.66;;;17.62;58.22
20971;BME280;10644;48.834;10.088;2023-04-29T11:32:11;96594.41;;;17.45;58.73
20971;BME280;10644;48.834;10.088;2023-04-29T11:34:37;96590.50;;;17.50;58.54
20971;BME280;10644;48.834;10.088;2023-04-29T11:37:04;96605.03;;;17.62;58.41
20971;BME280;10644;48.834;10.088;2023-04-29T11:39:33;96593.72;;;17.43;58.66
20971;BME280;10644;48.834;10.088;2023-04-29T11:42:05;96607.81;;;17.50;58.73
20971;BME280;10644;48.834;10.088;2023-04-29T11:44:34;96600.19;;;17.69;58.79
20971;BME280;10644;48.834;10.088;2023-04-29T11:47:05;96596.88;;;17.67;59.01
20971;BME280;10644;48.834;10.088;2023-04-29T11:49:32;96611.47;;;17.68;59.26
20971;BME280;10644;48.834;10.088;2023-04-29T11:51:58;96603.44;;;17.71;58.54
20971;BME280;10644;48.834;10.088;2023-04-29T11:54:25;96593.09;;;17.71;58.49
20971;BME280;10644;48.834;10.088;2023-04-29T11:56:52;96598.63;;;17.87;58.70
20971;BME280;10644;48.834;10.088;2023-04-29T11:59:18;96592.50;;;17.88;58.38
20971;BME280;10644;48.834;10.088;2023-04-29T12:01:44;96592.88;;;17.83;58.11
20971;BME280;10644;48.834;10.088;2023-04-29T12:04:10;96596.91;;;17.76;58.21
20971;BME280;10644;48.834;10.088;2023-04-29T12:06:35;96595.31;;;17.85;57.61
20971;BME280;10644;48.834;10.088;2023-04-29T12:09:01;96610.78;;;17.66;57.88
20971;BME280;10644;48.834;10.088;2023-04-29T12:11:28;96604.91;;;17.64;58.44
20971;BME280;10644;48.834;10.088;2023-04-29T12:13:54;96601.66;;;17.92;57.79
20971;BME280;10644;48.834;10.088;2023-04-29T12:16:19;96599.94;;;17.81;57.11
20971;BME280;10644;48.834;10.088;2023-04-29T12:18:45;96600.19;;;17.69;57.33
20971;BME280;10644;48.834;10.088;2023-04-29T12:21:10;96605.13;;;17.81;57.09
20971;BME280;10644;48.834;10.088;2023-04-29T12:23:36;96606.22;;;17.79;56.47
20971;BME280;10644;48.834;10.088;2023-04-29T12:26:01;96597.75;;;17.77;56.94
20971;BME280;10644;48.834;10.088;2023-04-29T12:28:27;96603.53;;;17.90;56.70
20971;BME280;10644;48.834;10.088;2023-04-29T12:30:53;96607.84;;;17.80;57.37
20971;BME280;10644;48.834;10.088;2023-04-29T12:35:47;96616.56;;;17.79;56.90
20971;BME280;10644;48.834;10.088;2023-04-29T12:38:15;96615.38;;;17.83;56.86
20971;BME280;10644;48.834;10.088;2023-04-29T12:40:40;96612.22;;;17.79;56.93
20971;BME280;10644;48.834;10.088;2023-04-29T12:43:07;96607.09;;;17.89;56.84
20971;BME280;10644;48.834;10.088;2023-04-29T12:45:33;96611.22;;;18.01;56.98
20971;BME280;10644;48.834;10.088;2023-04-29T12:48:00;96618.97;;;18.21;56.68
20971;BME280;10644;48.834;10.088;2023-04-29T12:50:34;96611.81;;;18.14;56.93
20971;BME280;10644;48.834;10.088;2023-04-29T12:53:03;96617.59;;;18.17;56.27
20971;BME280;10644;48.834;10.088;2023-04-29T12:55:32;96614.84;;;18.19;56.59
20971;BME280;10644;48.834;10.088;2023-04-29T12:57:58;96610.72;;;18.07;57.22
20971;BME280;10644;48.834;10.088;2023-04-29T13:00:26;96613.06;;;18.10;57.16
20971;BME280;10644;48.834;10.088;2023-04-29T13:02:51;96614.19;;;18.17;57.17
20971;BME280;10644;48.834;10.088;2023-04-29T13:05:17;96618.78;;;18.04;57.20
20971;BME280;10644;48.834;10.088;2023-04-29T13:07:42;96622.63;;;17.89;57.28
20971;BME280;10644;48.834;10.088;2023-04-29T13:10:08;96611.59;;;17.87;57.79
20971;BME280;10644;48.834;10.088;2023-04-29T13:12:36;96617.78;;;17.95;57.82
20971;BME280;10644;48.834;10.088;2023-04-29T13:15:01;96616.81;;;18.26;57.51
20971;BME280;10644;48.834;10.088;2023-04-29T13:17:27;96609.69;;;18.49;55.61
20971;BME280;10644;48.834;10.088;2023-04-29T13:19:52;96610.69;;;18.67;55.61
20971;BME280;10644;48.834;10.088;2023-04-29T13:22:18;96617.81;;;18.84;55.67
20971;BME280;10644;48.834;10.088;2023-04-29T13:24:43;96606.03;;;18.80;55.83
20971;BME280;10644;48.834;10.088;2023-04-29T13:27:10;96605.53;;;19.14;54.25